Time,TemperatureF,DewpointF,PressureIn,WindDirection,WindDirectionDegrees,WindSpeedMPH,WindSpeedGustMPH,Humidity,HourlyPrecipIn,Conditions,Clouds,dailyrainin,SoftwareType,DateUTC
2013-03-20 07:03:00,31.0,17.0,29.81,South,180,11.0,14.0,56,-99.99,,,-99.99,,2013-03-20 13:03:00,
2013-03-20 07:12:00,31.0,17.0,29.81,South,180,11.0,14.0,56,-99.99,,,-99.99,,2013-03-20 13:12:00,
2013-03-20 08:02:00,32.0,18.0,29.78,SW,225,8.0,9.0,56,-99.99,,,-99.99,,2013-03-20 14:02:00,
2013-03-20 08:12:00,32.0,18.0,29.78,SW,225,8.0,9.0,56,-99.99,,,-99.99,,2013-03-20 14:12:00,
2013-03-20 09:02:00,34.0,19.0,29.76,SSW,202,13.0,16.0,52,-99.99,,,-99.99,,2013-03-20 15:02:00,
2013-03-20 09:12:00,34.0,19.0,29.76,SSW,202,13.0,16.0,52,-99.99,,,-99.99,,2013-03-20 15:12:00,
2013-03-20 10:03:00,39.0,20.0,29.73,SSE,157,8.0,9.0,46,-99.99,,,-99.99,,2013-03-20 16:03:00,
2013-03-20 10:12:00,39.0,20.0,29.73,SSE,157,8.0,9.0,46,-99.99,,,-99.99,,2013-03-20 16:12:00,
2013-03-20 17:02:00,57.0,29.0,29.50,WSW,247,14.0,21.0,34,-99.99,,,-99.99,,2013-03-20 23:02:00,
2013-03-20 17:12:00,57.0,29.0,29.50,WSW,247,14.0,21.0,34,-99.99,,,-99.99,,2013-03-20 23:12:00,
2013-03-20 18:02:00,56.0,29.0,29.46,SW,225,21.0,23.0,36,-99.99,,,-99.99,,2013-03-21 00:02:00,
2013-03-20 18:12:00,56.0,29.0,29.46,SW,225,21.0,23.0,36,-99.99,,,-99.99,,2013-03-21 00:12:00,
2013-03-20 19:02:00,51.0,30.0,29.47,SW,225,12.0,14.0,45,-99.99,,,-99.99,,2013-03-21 01:02:00,
2013-03-20 19:12:00,51.0,30.0,29.47,SW,225,12.0,14.0,45,-99.99,,,-99.99,,2013-03-21 01:12:00,
2013-03-20 20:02:00,50.0,30.0,29.43,SSW,202,12.0,15.0,45,-99.99,,,-99.99,,2013-03-21 02:02:00,
2013-03-20 20:12:00,50.0,30.0,29.43,SSW,202,12.0,15.0,45,-99.99,,,-99.99,,2013-03-21 02:12:00,
2013-03-20 21:02:00,44.0,30.0,29.44,South,180,2.0,2.0,57,-99.99,,,-99.99,,2013-03-21 03:02:00,
2013-03-20 21:12:00,44.0,30.0,29.44,South,180,2.0,2.0,57,-99.99,,,-99.99,,2013-03-21 03:12:00,
2013-03-20 22:03:00,40.0,35.0,29.49,NW,315,8.0,10.0,82,-99.99,,,-99.99,,2013-03-21 04:03:00,
2013-03-20 22:12:00,40.0,35.0,29.49,NW,315,8.0,10.0,82,-99.99,,,-99.99,,2013-03-21 04:12:00,
2013-03-20 23:02:00,37.0,32.0,29.47,WNW,292,0.0,1.0,81,-99.99,,,-99.99,,2013-03-21 05:02:00,
2013-03-20 23:12:00,37.0,32.0,29.47,WNW,292,0.0,1.0,81,-99.99,,,-99.99,,2013-03-21 05:12:00,